sensor_id;sensor_type;location;lat;lon;timestamp;P1;durP1;ratioP1;P2;durP2;ratioP2
26838;SDS011;40088;51.214;6.786;2022-11-28T00:01:49;4.10;;;3.33;;
26838;SDS011;40088;51.214;6.786;2022-11-28T00:11:50;4.43;;;3.45;;
26838;SDS011;40088;51.214;6.786;2022-11-28T00:21:50;3.80;;;3.17;;
26838;SDS011;40088;51.214;6.786;2022-11-28T00:31:51;3.83;;;3.13;;
26838;SDS011;40088;51.214;6.786;2022-11-28T00:41:51;3.70;;;3.13;;
26838;SDS011;40088;51.214;6.786;2022-11-28T00:51:51;3.25;;;2.90;;
26838;SDS011;40088;51.214;6.786;2022-11-28T01:01:51;3.67;;;2.92;;
26838;SDS011;40088;51.214;6.786;2022-11-28T01:11:52;3.40;;;3.10;;
26838;SDS011;40088;51.214;6.786;2022-11-28T01:21:53;3.67;;;3.20;;
26838;SDS011;40088;51.214;6.786;2022-11-28T01:31:53;4.93;;;3.13;;
26838;SDS011;40088;51.214;6.786;2022-11-28T01:41:54;4.18;;;3.00;;
26838;SDS011;40088;51.214;6.786;2022-11-28T01:51:58;4.20;;;3.03;;
26838;SDS011;40088;51.214;6.786;2022-11-28T02:02:03;5.65;;;3.15;;
26838;SDS011;40088;51.214;6.786;2022-11-28T02:22:26;3.97;;;3.10;;
26838;SDS011;40088;51.214;6.786;2022-11-28T02:42:41;3.85;;;3.15;;
26838;SDS011;40088;51.214;6.786;2022-11-28T02:52:52;4.32;;;3.35;;
26838;SDS011;40088;51.214;6.786;2022-11-28T03:23:18;3.38;;;3.08;;
26838;SDS011;40088;51.214;6.786;2022-11-28T03:33:24;3.55;;;3.22;;
26838;SDS011;40088;51.214;6.786;2022-11-28T03:43:30;3.60;;;3.25;;
26838;SDS011;40088;51.214;6.786;2022-11-28T03:53:39;3.30;;;3.00;;
26838;SDS011;40088;51.214;6.786;2022-11-28T04:13:56;4.17;;;2.70;;
26838;SDS011;40088;51.214;6.786;2022-11-28T04:24:04;3.78;;;3.00;;
26838;SDS011;40088;51.214;6.786;2022-11-28T04:34:10;4.30;;;3.13;;
26838;SDS011;40088;51.214;6.786;2022-11-28T04:44:30;3.75;;;3.33;;
26838;SDS011;40088;51.214;6.786;2022-11-28T05:04:38;2.63;;;2.43;;
26838;SDS011;40088;51.214;6.786;2022-11-28T05:14:39;4.70;;;3.10;;
26838;SDS011;40088;51.214;6.786;2022-11-28T05:24:39;5.72;;;3.40;;
26838;SDS011;40088;51.214;6.786;2022-11-28T05:34:40;4.28;;;3.38;;
26838;SDS011;40088;51.214;6.786;2022-11-28T05:44:40;4.72;;;3.33;;
26838;SDS011;40088;51.214;6.786;2022-11-28T05:54:40;3.88;;;3.13;;
26838;SDS011;40088;51.214;6.786;2022-11-28T06:04:40;4.47;;;3.20;;
26838;SDS011;40088;51.214;6.786;2022-11-28T06:14:41;4.13;;;3.20;;
26838;SDS011;40088;51.214;6.786;2022-11-28T06:24:41;4.40;;;3.28;;
26838;SDS011;40088;51.214;6.786;2022-11-28T06:34:41;3.75;;;2.95;;
26838;SDS011;40088;51.214;6.786;2022-11-28T06:44:42;4.72;;;3.42;;
26838;SDS011;40088;51.214;6.786;2022-11-28T06:54:42;4.15;;;3.20;;
26838;SDS011;40088;51.214;6.786;2022-11-28T07:04:43;3.97;;;3.22;;
26838;SDS011;40088;51.214;6.786;2022-11-28T07:14:44;4.43;;;3.33;;
26838;SDS011;40088;51.214;6.786;2022-11-28T07:24:45;5.85;;;4.03;;
26838;SDS011;40088;51.214;6.786;2022-11-28T07:34:45;3.72;;;3.35;;
26838;SDS011;40088;51.214;6.786;2022-11-28T07:44:45;3.80;;;3.40;;
26838;SDS011;40088;51.214;6.786;2022-11-28T07:54:47;4.30;;;3.58;;
26838;SDS011;40088;51.214;6.786;2022-11-28T08:04:48;5.70;;;3.72;;
26838;SDS011;40088;51.214;6.786;2022-11-28T08:14:49;4.07;;;3.50;;
26838;SDS011;40088;51.214;6.786;2022-11-28T08:24:49;4.35;;;3.40;;
26838;SDS011;40088;51.214;6.786;2022-11-28T08:34:49;3.47;;;3.10;;
26838;SDS011;40088;51.214;6.786;2022-11-28T08:44:50;3.70;;;3.25;;
26838;SDS011;40088;51.214;6.786;2022-11-28T08:54:50;4.15;;;3.40;;
26838;SDS011;40088;51.214;6.786;2022-11-28T09:04:50;3.97;;;3.20;;
26838;SDS011;40088;51.214;6.786;2022-11-28T09:14:50;4.65;;;3.30;;
26838;SDS011;40088;51.214;6.786;2022-11-28T09:24:51;4.20;;;3.33;;
26838;SDS011;40088;51.214;6.786;2022-11-28T09:34:51;3.72;;;3.08;;
26838;SDS011;40088;51.214;6.786;2022-11-28T09:44:55;4.43;;;3.92;;
26838;SDS011;40088;51.214;6.786;2022-11-28T10:15:43;4.43;;;3.70;;
26838;SDS011;40088;51.214;6.786;2022-11-28T10:25:52;4.40;;;3.35;;
26838;SDS011;40088;51.214;6.786;2022-11-28T10:35:57;3.78;;;3.40;;
26838;SDS011;40088;51.214;6.786;2022-11-28T10:46:03;3.90;;;3.47;;
26838;SDS011;40088;51.214;6.786;2022-11-28T11:06:42;4.85;;;3.58;;
26838;SDS011;40088;51.214;6.786;2022-11-28T11:26:46;4.85;;;3.55;;
26838;SDS011;40088;51.214;6.786;2022-11-28T11:36:48;4.18;;;3.78;;
26838;SDS011;40088;51.214;6.786;2022-11-28T11:46:55;4.97;;;3.80;;
26838;SDS011;40088;51.214;6.786;2022-11-28T11:57:02;4.28;;;3.78;;
26838;SDS011;40088;51.214;6.786;2022-11-28T12:07:04;4.80;;;4.30;;
26838;SDS011;40088;51.214;6.786;2022-11-28T12:38:22;6.22;;;3.75;;
26838;SDS011;40088;51.214;6.786;2022-11-28T12:59:22;4.85;;;3.90;;
26838;SDS011;40088;51.214;6.786;2022-11-28T13:09:38;4.97;;;3.67;;
26838;SDS011;40088;51.214;6.786;2022-11-28T13:19:50;5.43;;;3.83;;
26838;SDS011;40088;51.214;6.786;2022-11-28T13:30:15;5.50;;;4.23;;
26838;SDS011;40088;51.214;6.786;2022-11-28T14:00:27;5.78;;;4.50;;
26838;SDS011;40088;51.214;6.786;2022-11-28T14:20:41;5.40;;;4.30;;
26838;SDS011;40088;51.214;6.786;2022-11-28T14:30:46;5.25;;;4.45;;
26838;SDS011;40088;51.214;6.786;2022-11-28T14:50:53;5.03;;;4.30;;
26838;SDS011;40088;51.214;6.786;2022-11-28T15:00:54;5.57;;;4.55;;
26838;SDS011;40088;51.214;6.786;2022-11-28T15:21:19;5.55;;;4.50;;
26838;SDS011;40088;51.214;6.786;2022-11-28T15:31:21;6.70;;;4.50;;
26838;SDS011;40088;51.214;6.786;2022-11-28T15:41:22;5.70;;;4.30;;
26838;SDS011;40088;51.214;6.786;2022-11-28T15:51:28;5.63;;;4.32;;
26838;SDS011;40088;51.214;6.786;2022-11-28T16:01:31;4.40;;;4.00;;
26838;SDS011;40088;51.214;6.786;2022-11-28T16:11:33;5.35;;;4.43;;
26838;SDS011;40088;51.214;6.786;2022-11-28T16:22:17;5.15;;;3.85;;
26838;SDS011;40088;51.214;6.786;2022-11-28T16:42:15;4.85;;;4.32;;
26838;SDS011;40088;51.214;6.786;2022-11-28T17:02:26;5.80;;;5.15;;
26838;SDS011;40088;51.214;6.786;2022-11-28T17:12:27;4.60;;;4.07;;
26838;SDS011;40088;51.214;6.786;2022-11-28T17:22:38;5.43;;;4.53;;
26838;SDS011;40088;51.214;6.786;2022-11-28T17:32:41;5.90;;;4.60;;
26838;SDS011;40088;51.214;6.786;2022-11-28T17:42:42;7.10;;;4.63;;
26838;SDS011;40088;51.214;6.786;2022-11-28T17:52:42;6.03;;;4.60;;
26838;SDS011;40088;51.214;6.786;2022-11-28T18:02:43;6.32;;;4.70;;
26838;SDS011;40088;51.214;6.786;2022-11-28T18:12:43;6.57;;;4.53;;
26838;SDS011;40088;51.214;6.786;2022-11-28T18:22:43;6.38;;;4.70;;
26838;SDS011;40088;51.214;6.786;2022-11-28T18:32:44;5.32;;;4.20;;
26838;SDS011;40088;51.214;6.786;2022-11-28T18:42:44;4.85;;;4.30;;
26838;SDS011;40088;51.214;6.786;2022-11-28T18:52:45;8.05;;;5.32;;
26838;SDS011;40088;51.214;6.786;2022-11-28T19:02:45;6.60;;;4.80;;
26838;SDS011;40088;51.214;6.786;2022-11-28T19:12:45;6.28;;;5.30;;
26838;SDS011;40088;51.214;6.786;2022-11-28T19:22:46;6.15;;;5.18;;
26838;SDS011;40088;51.214;6.786;2022-11-28T19:32:46;7.40;;;6.25;;
26838;SDS011;40088;51.214;6.786;2022-11-28T19:42:46;6.60;;;5.65;;
26838;SDS011;40088;51.214;6.786;2022-11-28T19:52:46;9.25;;;6.47;;
26838;SDS011;40088;51.214;6.786;2022-11-28T20:02:47;8.48;;;6.10;;
26838;SDS011;40088;51.214;6.786;2022-11-28T20:12:49;8.27;;;5.82;;
26838;SDS011;40088;51.214;6.786;2022-11-28T20:22:49;7.63;;;5.82;;
26838;SDS011;40088;51.214;6.786;2022-11-28T20:32:49;7.50;;;6.18;;
26838;SDS011;40088;51.214;6.786;2022-11-28T20:42:50;7.22;;;5.72;;
26838;SDS011;40088;51.214;6.786;2022-11-28T20:52:50;9.55;;;6.30;;
26838;SDS011;40088;51.214;6.786;2022-11-28T21:02:50;7.30;;;5.72;;
26838;SDS011;40088;51.214;6.786;2022-11-28T21:12:50;8.75;;;6.22;;
26838;SDS011;40088;51.214;6.786;2022-11-28T21:22:51;9.00;;;6.57;;
26838;SDS011;40088;51.214;6.786;2022-11-28T21:32:51;10.40;;;6.10;;
26838;SDS011;40088;51.214;6.786;2022-11-28T21:42:51;8.70;;;6.13;;
26838;SDS011;40088;51.214;6.786;2022-11-28T21:52:51;8.68;;;6.30;;
26838;SDS011;40088;51.214;6.786;2022-11-28T22:02:52;7.43;;;6.07;;
26838;SDS011;40088;51.214;6.786;2022-11-28T22:12:52;9.75;;;6.55;;
26838;SDS011;40088;51.214;6.786;2022-11-28T22:22:52;8.43;;;6.00;;
26838;SDS011;40088;51.214;6.786;2022-11-28T22:32:53;8.70;;;6.13;;
26838;SDS011;40088;51.214;6.786;2022-11-28T22:42:53;7.68;;;5.45;;
26838;SDS011;40088;51.214;6.786;2022-11-28T22:52:54;6.47;;;5.45;;
26838;SDS011;40088;51.214;6.786;2022-11-28T23:02:54;7.93;;;5.80;;
26838;SDS011;40088;51.214;6.786;2022-11-28T23:12:55;7.95;;;5.45;;
26838;SDS011;40088;51.214;6.786;2022-11-28T23:22:55;7.13;;;5.80;;
26838;SDS011;40088;51.214;6.786;2022-11-28T23:32:55;8.63;;;5.60;;
26838;SDS011;40088;51.214;6.786;2022-11-28T23:42:55;7.70;;;5.47;;
26838;SDS011;40088;51.214;6.786;2022-11-28T23:52:56;7.07;;;5.53;;
